Falls Creek, Pennsylvania
Current Conditions -  °F | °C
As of 9:48 PM on Sunday 23 Nov 2014 (Local Time) from KDUJ Reporting Station
Overcast Overcast  
Wind Chill: 50°   Ceiling: 9500
Heat Index: 50°   Visibility: 10mi
Dew Point: 39°   Wind: 17mph
Humidity: 66%   Direction: 150°SSE
Pressure: 29.74"   Gusts: 29mph
Location:  41.15°N, 78.8°W
Report Text: KDUJ 240248Z AUTO 15015G25KT 10SM SCT025 BKN095 OVC110 10/04 A2974 RMK AO2
Loading
Personal Weather Stations






























Interactive Weather Map New forecast layout! Learn more

10-Day Weather Forecast

Advertisements
Track Severe Weather on mobile